createdAt,value
2022-08-12T00:02:02.724Z,2.28
2022-08-12T00:04:51.167Z,1.98
2022-08-12T00:07:36.549Z,2.30
2022-08-12T00:10:23.079Z,2.22
2022-08-12T00:13:07.988Z,2.38
2022-08-12T00:15:54.834Z,2.28
2022-08-12T00:18:40.301Z,2.22
2022-08-12T00:21:25.540Z,2.47
2022-08-12T00:24:12.831Z,2.45
2022-08-12T00:27:00.073Z,2.50
2022-08-12T00:29:47.944Z,2.08
2022-08-12T00:32:36.357Z,2.42
2022-08-12T00:35:29.182Z,2.33
2022-08-12T00:38:22.774Z,2.38
2022-08-12T00:41:08.171Z,2.40
2022-08-12T00:43:36.138Z,2.08
2022-08-12T00:46:21.791Z,2.65
2022-08-12T00:48:49.568Z,2.20
2022-08-12T00:51:16.848Z,2.30
2022-08-12T00:53:43.572Z,2.35
2022-08-12T00:56:10.780Z,2.00
2022-08-12T00:58:46.041Z,2.17
2022-08-12T01:01:14.463Z,2.05
2022-08-12T01:03:59.759Z,2.00
2022-08-12T01:07:06.241Z,2.05
2022-08-12T01:10:02.129Z,2.00
2022-08-12T01:12:29.300Z,2.15
2022-08-12T01:14:57.397Z,2.10
2022-08-12T01:17:24.980Z,2.08
2022-08-12T01:19:55.852Z,2.30
2022-08-12T01:22:34.389Z,2.10
2022-08-12T01:25:12.447Z,2.30
2022-08-12T01:27:40.540Z,1.95
2022-08-12T01:30:10.763Z,2.13
2022-08-12T01:32:40.614Z,2.20
2022-08-12T01:35:11.554Z,2.22
2022-08-12T01:37:57.944Z,2.10
2022-08-12T01:40:35.258Z,1.83
2022-08-12T01:43:09.407Z,2.45
2022-08-12T01:45:45.809Z,2.17
2022-08-12T01:48:19.598Z,2.20
2022-08-12T01:51:08.947Z,2.10
2022-08-12T01:53:51.008Z,2.13
2022-08-12T01:56:21.872Z,2.10
2022-08-12T01:59:12.444Z,2.10
2022-08-12T02:01:41.077Z,2.22
2022-08-12T02:05:19.717Z,2.13
2022-08-12T02:08:19.064Z,2.38
2022-08-12T02:25:26.655Z,2.50
2022-08-12T02:27:56.359Z,1.95
2022-08-12T02:30:25.606Z,2.42
2022-08-12T02:33:04.535Z,2.08
2022-08-12T02:35:34.090Z,2.45
2022-08-12T02:38:03.274Z,2.30
2022-08-12T02:40:30.113Z,2.20
2022-08-12T02:43:04.116Z,2.13
2022-08-12T02:45:42.972Z,2.22
2022-08-12T02:48:15.049Z,2.60
2022-08-12T02:50:46.638Z,2.42
2022-08-12T02:53:14.525Z,2.25
2022-08-12T02:55:41.007Z,2.20
2022-08-12T02:58:12.000Z,2.42
2022-08-12T03:00:42.014Z,2.42
2022-08-12T03:03:12.785Z,2.30
2022-08-12T03:06:03.313Z,2.42
2022-08-12T03:08:34.844Z,2.38
2022-08-12T03:11:14.527Z,2.10
2022-08-12T03:13:47.329Z,2.40
2022-08-12T03:16:14.706Z,2.20
2022-08-12T03:18:46.195Z,2.28
2022-08-12T03:21:16.755Z,2.38
2022-08-12T03:23:45.162Z,2.35
2022-08-12T03:26:11.997Z,2.28
2022-08-12T03:28:51.117Z,2.47
2022-08-12T03:31:20.656Z,2.50
2022-08-12T03:34:01.297Z,2.42
2022-08-12T03:36:33.364Z,2.33
2022-08-12T03:39:17.512Z,2.13
2022-08-12T03:41:51.201Z,2.05
2022-08-12T03:44:45.889Z,2.25
2022-08-12T03:47:41.391Z,2.20
2022-08-12T03:50:26.748Z,2.13
2022-08-12T03:53:12.080Z,2.50
2022-08-12T03:55:57.019Z,2.25
2022-08-12T03:58:42.300Z,2.28
2022-08-12T04:01:08.944Z,2.42
2022-08-12T04:03:54.858Z,2.40
2022-08-12T04:06:34.991Z,2.25
2022-08-12T04:09:14.667Z,2.45
2022-08-12T04:12:02.730Z,2.50
2022-08-12T04:14:29.347Z,2.40
2022-08-12T04:16:57.062Z,2.30
2022-08-12T04:19:25.045Z,2.25
2022-08-12T04:22:01.939Z,2.47
2022-08-12T04:24:38.025Z,2.60
2022-08-12T04:27:09.838Z,2.42
2022-08-12T04:30:31.073Z,2.20
2022-08-12T04:32:25.801Z,2.40
2022-08-12T04:34:52.638Z,2.38
2022-08-12T04:37:19.448Z,2.15
2022-08-12T04:39:46.483Z,2.45
2022-08-12T04:42:13.340Z,2.30
2022-08-12T04:44:40.076Z,2.53
2022-08-12T04:47:06.628Z,2.30
2022-08-12T04:49:34.753Z,2.10
2022-08-12T04:52:03.142Z,2.53
2022-08-12T04:54:30.867Z,2.42
2022-08-12T04:57:04.829Z,2.33
2022-08-12T04:59:32.745Z,2.50
2022-08-12T05:02:17.049Z,2.50
2022-08-12T05:04:56.102Z,2.50
2022-08-12T05:07:27.778Z,2.60
2022-08-12T05:10:00.138Z,2.40
2022-08-12T05:12:34.085Z,2.58
2022-08-12T05:15:00.629Z,2.47
2022-08-12T05:17:28.015Z,2.80
2022-08-12T05:19:57.150Z,2.58
2022-08-12T05:22:27.811Z,2.50
2022-08-12T05:24:54.248Z,2.30
2022-08-12T05:30:07.086Z,2.30
2022-08-12T05:32:36.554Z,2.60
2022-08-12T05:35:06.339Z,2.47
2022-08-12T05:37:34.694Z,2.30
2022-08-12T05:40:03.750Z,2.63
2022-08-12T05:42:42.326Z,2.53
2022-08-12T05:45:09.613Z,2.58
2022-08-12T05:47:44.912Z,2.20
2022-08-12T05:50:20.472Z,2.05
2022-08-12T05:52:48.107Z,2.53
2022-08-12T05:55:15.522Z,2.30
2022-08-12T05:57:44.180Z,2.30
2022-08-12T06:00:11.080Z,2.50
2022-08-12T06:02:41.882Z,2.45
2022-08-12T06:05:10.434Z,2.80
2022-08-12T06:08:00.476Z,2.15
2022-08-12T06:10:32.117Z,2.63
2022-08-12T06:13:03.816Z,2.80
2022-08-12T06:15:31.165Z,2.70
2022-08-12T06:18:13.615Z,2.80
2022-08-12T06:20:43.857Z,2.80
2022-08-12T06:23:11.593Z,3.10
2022-08-12T06:25:38.441Z,2.63
2022-08-12T06:28:17.620Z,2.60
2022-08-12T06:30:53.120Z,2.30
2022-08-12T06:34:00.128Z,2.70
2022-08-12T06:36:23.182Z,2.22
2022-08-12T06:38:50.344Z,2.55
2022-08-12T06:41:35.804Z,2.35
2022-08-12T06:44:06.574Z,2.50
2022-08-12T06:46:36.678Z,2.67
2022-08-12T06:49:04.106Z,2.20
2022-08-12T06:51:32.143Z,2.40
2022-08-12T06:54:00.366Z,2.78
2022-08-12T06:56:45.818Z,2.20
2022-08-12T06:59:15.535Z,2.10
2022-08-12T07:01:51.258Z,2.33
2022-08-12T07:04:36.148Z,2.15
2022-08-12T07:07:05.374Z,2.10
2022-08-12T07:10:03.675Z,2.10
2022-08-12T07:12:19.789Z,2.55
2022-08-12T07:14:51.473Z,2.28
2022-08-12T07:17:18.496Z,2.10
2022-08-12T07:19:47.041Z,2.13
2022-08-12T07:22:15.993Z,2.10
2022-08-12T07:24:42.434Z,2.20
2022-08-12T07:27:09.084Z,2.22
2022-08-12T07:29:58.194Z,2.20
2022-08-12T07:32:24.461Z,2.40
2022-08-12T07:34:54.524Z,2.25
2022-08-12T07:37:20.971Z,2.42
2022-08-12T07:39:50.884Z,2.28
2022-08-12T07:42:26.414Z,2.67
2022-08-12T07:44:53.201Z,2.40
2022-08-12T07:47:19.647Z,2.13
2022-08-12T07:50:04.878Z,2.30
2022-08-12T07:52:42.566Z,2.20
2022-08-12T07:57:54.073Z,2.08
2022-08-12T08:00:20.881Z,1.88
2022-08-12T08:02:49.221Z,2.00
2022-08-12T08:05:16.157Z,2.30
2022-08-12T08:07:42.734Z,2.10
2022-08-12T08:10:11.397Z,2.28
2022-08-12T08:12:53.773Z,2.22
2022-08-12T08:16:00.668Z,1.98
2022-08-12T08:18:25.854Z,2.17
2022-08-12T08:23:19.860Z,1.70
2022-08-12T08:25:48.235Z,1.90
2022-08-12T08:28:17.067Z,1.80
2022-08-12T08:30:45.867Z,1.85
2022-08-12T08:33:23.175Z,1.77
2022-08-12T08:36:02.050Z,2.10
2022-08-12T08:38:33.095Z,1.80
2022-08-12T08:42:17.302Z,1.90
2022-08-12T08:44:11.068Z,1.80
2022-08-12T08:46:38.632Z,1.67
2022-08-12T08:49:06.034Z,1.70
2022-08-12T08:51:32.800Z,1.58
2022-08-12T08:53:59.250Z,2.05
2022-08-12T08:56:27.015Z,1.80
2022-08-12T08:58:53.634Z,1.80
2022-08-12T09:01:21.500Z,2.10
2022-08-12T09:05:09.605Z,1.80
2022-08-12T09:06:37.911Z,1.80
2022-08-12T09:09:13.323Z,1.85
2022-08-12T09:12:16.508Z,1.70
2022-08-12T09:14:54.230Z,1.80
2022-08-12T09:17:22.432Z,1.70
2022-08-12T09:19:55.073Z,1.75
2022-08-12T09:22:22.418Z,1.80
2022-08-12T09:24:55.265Z,1.75
2022-08-12T09:27:25.788Z,1.42
2022-08-12T09:30:15.942Z,1.80
2022-08-12T09:33:04.162Z,1.85
2022-08-12T09:35:43.264Z,1.90
2022-08-12T09:38:28.393Z,1.83
2022-08-12T09:42:07.991Z,1.80
2022-08-12T09:44:06.643Z,1.70
2022-08-12T09:46:53.238Z,1.70
2022-08-12T09:49:24.136Z,1.85
2022-08-12T09:51:55.099Z,1.70
2022-08-12T09:54:33.326Z,1.60
2022-08-12T09:58:08.251Z,1.67
2022-08-12T10:00:12.641Z,1.83
2022-08-12T10:03:06.232Z,1.73
2022-08-12T10:06:26.215Z,2.05
2022-08-12T10:08:23.908Z,2.00
2022-08-12T10:11:09.651Z,1.85
2022-08-12T10:13:48.534Z,2.05
2022-08-12T10:16:22.509Z,1.70
2022-08-12T10:18:57.013Z,2.00
2022-08-12T10:21:36.241Z,1.65
2022-08-12T10:24:06.724Z,2.00
2022-08-12T10:26:54.544Z,1.77
2022-08-12T10:30:38.249Z,2.13
2022-08-12T10:32:43.189Z,1.80
2022-08-12T10:35:13.396Z,1.50
2022-08-12T10:38:36.134Z,1.95
2022-08-12T10:40:33.066Z,1.80
2022-08-12T10:43:20.272Z,1.70
2022-08-12T10:45:49.762Z,1.85
2022-08-12T10:48:26.567Z,1.65
2022-08-12T10:51:51.983Z,1.70
2022-08-12T10:53:52.475Z,1.60
2022-08-12T10:56:19.580Z,1.90
2022-08-12T10:58:48.564Z,1.80
2022-08-12T11:01:50.615Z,1.90
2022-08-12T11:04:25.448Z,1.73
2022-08-12T11:07:05.541Z,1.60
2022-08-12T11:09:56.214Z,1.67
2022-08-12T11:12:54.560Z,1.73
2022-08-12T11:15:20.623Z,1.60
2022-08-12T11:17:53.585Z,1.60
2022-08-12T11:20:24.042Z,1.80
2022-08-12T11:22:59.963Z,1.80
2022-08-12T11:25:56.520Z,1.95
2022-08-12T11:28:33.439Z,1.70
2022-08-12T11:31:01.391Z,1.92
2022-08-12T11:34:03.251Z,1.73
2022-08-12T11:36:14.773Z,1.70
2022-08-12T11:38:41.410Z,2.08
2022-08-12T11:41:09.839Z,1.77
2022-08-12T11:43:50.747Z,1.30
2022-08-12T11:46:22.715Z,1.58
2022-08-12T11:48:52.196Z,1.50
2022-08-12T11:51:20.699Z,1.40
2022-08-12T11:53:57.497Z,1.48
2022-08-12T11:56:38.600Z,1.80
2022-08-12T12:02:01.072Z,1.50
2022-08-12T12:06:56.877Z,1.88
2022-08-12T12:09:51.948Z,1.77
2022-08-12T12:12:22.425Z,1.65
2022-08-12T12:14:54.992Z,1.60
2022-08-12T12:17:26.147Z,1.42
2022-08-12T12:19:54.025Z,1.40
2022-08-12T12:22:23.636Z,1.60
2022-08-12T12:24:54.227Z,1.40
2022-08-12T12:27:20.754Z,1.58
2022-08-12T12:30:18.574Z,1.60
2022-08-12T12:32:54.294Z,1.60
2022-08-12T12:36:19.831Z,1.70
2022-08-12T12:38:11.889Z,1.58
2022-08-12T12:40:50.304Z,1.40
2022-08-12T12:43:28.973Z,1.40
2022-08-12T12:46:05.058Z,1.52
2022-08-12T12:48:31.503Z,1.58
2022-08-12T12:51:49.370Z,1.80
2022-08-12T12:54:06.133Z,1.40
2022-08-12T12:56:35.093Z,1.40
2022-08-12T12:59:03.331Z,1.70
2022-08-12T13:01:31.896Z,1.50
2022-08-12T13:04:02.701Z,1.50
2022-08-12T13:06:31.420Z,1.50
2022-08-12T13:09:03.545Z,1.55
2022-08-12T13:11:42.167Z,1.50
2022-08-12T13:14:28.077Z,1.50
2022-08-12T13:16:57.501Z,1.42
2022-08-12T13:19:38.682Z,1.50
2022-08-12T13:22:20.098Z,1.50
2022-08-12T13:24:54.541Z,1.50
2022-08-12T13:27:23.176Z,1.52
2022-08-12T13:30:01.975Z,1.35
2022-08-12T13:32:31.443Z,1.60
2022-08-12T13:35:04.745Z,1.38
2022-08-12T13:37:55.650Z,1.50
2022-08-12T13:40:29.234Z,1.60
2022-08-12T13:43:01.737Z,1.30
2022-08-12T13:45:30.835Z,1.50
2022-08-12T13:47:58.574Z,1.40
2022-08-12T13:50:36.168Z,1.50
2022-08-12T13:56:01.873Z,1.60
2022-08-12T13:58:30.940Z,1.70
2022-08-12T14:01:05.342Z,1.50
2022-08-12T14:03:50.746Z,1.42
2022-08-12T14:06:20.538Z,1.38
2022-08-12T14:20:40.890Z,1.90
2022-08-12T14:24:04.122Z,1.67
2022-08-12T14:25:59.651Z,1.52
2022-08-12T14:28:30.964Z,1.40
2022-08-12T14:31:02.840Z,1.63
2022-08-12T14:33:32.530Z,1.40
2022-08-12T14:36:11.809Z,1.75
2022-08-12T14:38:41.443Z,1.50
2022-08-12T14:41:13.772Z,1.50
2022-08-12T14:43:58.990Z,1.52
2022-08-12T14:46:29.636Z,1.70
2022-08-12T14:48:56.212Z,1.50
2022-08-12T14:52:57.764Z,1.50
2022-08-12T14:57:05.791Z,1.70
2022-08-12T15:00:09.125Z,1.45
2022-08-12T15:02:38.073Z,1.52
2022-08-12T15:05:04.868Z,1.52
2022-08-12T15:07:49.536Z,1.63
2022-08-12T15:10:31.290Z,1.73
2022-08-12T15:13:03.151Z,1.67
2022-08-12T15:15:44.073Z,1.60
2022-08-12T15:18:21.609Z,1.60
2022-08-12T15:20:54.637Z,1.50
2022-08-12T15:23:24.366Z,1.50
2022-08-12T15:25:59.719Z,2.58
2022-08-12T15:28:32.784Z,1.70
2022-08-12T15:31:00.706Z,1.55
2022-08-12T15:33:37.978Z,1.58
2022-08-12T15:36:12.927Z,1.60
2022-08-12T15:38:40.004Z,1.67
2022-08-12T15:41:06.908Z,1.40
2022-08-12T15:43:52.115Z,1.40
2022-08-12T15:46:21.162Z,1.50
2022-08-12T15:48:52.303Z,1.80
2022-08-12T15:51:59.418Z,1.52
2022-08-12T15:54:33.250Z,1.40
2022-08-12T15:57:02.410Z,1.60
2022-08-12T15:59:51.237Z,1.40
2022-08-12T16:02:18.472Z,1.67
2022-08-12T16:04:50.219Z,1.90
2022-08-12T16:07:29.813Z,1.73
2022-08-12T16:10:05.616Z,1.52
2022-08-12T16:12:43.739Z,1.63
2022-08-12T16:15:25.018Z,1.50
2022-08-12T16:18:25.926Z,1.85
2022-08-12T16:20:42.185Z,1.77
2022-08-12T16:23:26.218Z,1.60
2022-08-12T16:26:05.931Z,1.70
2022-08-12T16:28:33.863Z,1.70
2022-08-12T16:31:01.827Z,1.98
2022-08-12T16:33:58.767Z,1.52
2022-08-12T16:36:29.079Z,1.83
2022-08-12T16:38:55.611Z,1.80
2022-08-12T16:41:23.170Z,1.60
2022-08-12T16:43:50.414Z,1.70
2022-08-12T16:46:31.812Z,1.60
2022-08-12T16:49:08.667Z,1.58
2022-08-12T16:51:47.249Z,1.80
2022-08-12T16:54:18.876Z,1.60
2022-08-12T16:56:50.850Z,2.20
2022-08-12T16:59:30.634Z,1.80
2022-08-12T17:01:57.771Z,1.60
2022-08-12T17:04:25.172Z,1.50
2022-08-12T17:06:52.461Z,1.88
2022-08-12T17:09:19.313Z,1.60
2022-08-12T17:11:49.307Z,1.98
2022-08-12T17:14:17.074Z,1.50
2022-08-12T17:16:48.333Z,1.77
2022-08-12T17:19:17.968Z,1.70
2022-08-12T17:22:01.409Z,1.40
2022-08-12T17:24:32.373Z,1.60
2022-08-12T17:27:00.674Z,1.70
2022-08-12T17:30:00.562Z,1.60
2022-08-12T17:32:14.347Z,1.70
2022-08-12T17:35:00.305Z,1.70
2022-08-12T17:37:27.418Z,1.57
2022-08-12T17:40:14.900Z,1.45
2022-08-12T17:42:43.502Z,1.73
2022-08-12T17:45:18.575Z,1.80
2022-08-12T17:48:04.897Z,1.80
2022-08-12T17:50:38.795Z,1.90
2022-08-12T17:53:07.836Z,1.48
2022-08-12T17:55:44.253Z,1.60
2022-08-12T17:58:37.326Z,1.60
2022-08-12T18:01:05.819Z,1.50
2022-08-12T18:04:04.710Z,1.40
2022-08-12T18:06:22.781Z,1.67
2022-08-12T18:08:56.737Z,1.55
2022-08-12T18:12:03.805Z,1.50
2022-08-12T18:14:32.419Z,1.88
2022-08-12T18:17:01.596Z,1.50
2022-08-12T18:20:03.842Z,1.60
2022-08-12T18:22:22.123Z,1.80
2022-08-12T18:25:06.491Z,1.50
2022-08-12T18:27:44.893Z,1.67
2022-08-12T18:30:20.390Z,1.58
2022-08-12T18:32:59.544Z,1.42
2022-08-12T18:35:47.088Z,1.63
2022-08-12T18:38:20.800Z,1.58
2022-08-12T18:41:09.411Z,1.70
2022-08-12T18:43:58.588Z,1.52
2022-08-12T18:46:40.618Z,1.40
2022-08-12T18:49:17.078Z,1.70
2022-08-12T18:51:55.157Z,1.80
2022-08-12T18:54:32.300Z,1.60
2022-08-12T18:57:01.945Z,1.52
2022-08-12T19:00:54.155Z,1.77
2022-08-12T19:03:23.359Z,1.63
2022-08-12T19:06:06.475Z,1.70
2022-08-12T19:08:37.498Z,1.80
2022-08-12T19:11:24.978Z,2.00
2022-08-12T19:14:12.284Z,1.55
2022-08-12T19:16:41.373Z,1.50
2022-08-12T19:19:10.440Z,1.70
2022-08-12T19:21:38.561Z,1.50
2022-08-12T19:24:25.476Z,2.85
2022-08-12T19:26:57.376Z,1.50
2022-08-12T19:29:24.079Z,1.60
2022-08-12T19:31:58.012Z,1.90
2022-08-12T19:35:32.859Z,1.70
2022-08-12T19:37:38.663Z,1.85
2022-08-12T19:40:30.606Z,1.60
2022-08-12T19:43:02.304Z,1.40
2022-08-12T19:45:48.981Z,1.70
2022-08-12T19:48:18.772Z,1.45
2022-08-12T19:50:50.258Z,1.55
2022-08-12T19:53:19.852Z,1.63
2022-08-12T19:55:50.753Z,2.00
2022-08-12T19:58:19.504Z,1.90
2022-08-12T20:00:52.597Z,1.80
2022-08-12T20:03:38.147Z,2.05
2022-08-12T20:06:13.492Z,1.70
2022-08-12T20:08:47.777Z,1.50
2022-08-12T20:12:13.519Z,1.40
2022-08-12T20:14:04.052Z,1.50
2022-08-12T20:16:52.480Z,1.52
2022-08-12T20:19:24.536Z,1.60
2022-08-12T20:22:14.455Z,1.58
2022-08-12T20:24:42.369Z,1.50
2022-08-12T20:27:29.111Z,1.40
2022-08-12T20:30:00.664Z,1.25
2022-08-12T20:32:37.353Z,1.52
2022-08-12T20:38:06.571Z,1.42
2022-08-12T20:40:38.246Z,1.63
2022-08-12T20:43:06.575Z,1.30
2022-08-12T20:45:44.654Z,1.30
2022-08-12T20:48:17.304Z,1.30
2022-08-12T20:50:53.360Z,1.08
2022-08-12T20:53:33.069Z,1.40
2022-08-12T20:56:37.336Z,1.42
2022-08-12T20:59:14.691Z,1.52
2022-08-12T21:01:48.329Z,1.80
2022-08-12T21:04:36.258Z,1.85
2022-08-12T21:07:09.356Z,1.60
2022-08-12T21:09:41.550Z,2.00
2022-08-12T21:12:28.437Z,1.92
2022-08-12T21:15:17.256Z,1.75
2022-08-12T21:18:09.379Z,1.90
2022-08-12T21:20:35.629Z,1.80
2022-08-12T21:23:04.397Z,2.00
2022-08-12T21:25:36.049Z,1.50
2022-08-12T21:28:12.572Z,2.00
2022-08-12T21:30:43.226Z,1.75
2022-08-12T21:33:30.828Z,1.63
2022-08-12T21:35:58.039Z,1.70
2022-08-12T21:38:34.224Z,1.90
2022-08-12T21:41:07.055Z,1.70
2022-08-12T21:43:39.008Z,1.65
2022-08-12T21:46:23.366Z,1.85
2022-08-12T21:49:04.054Z,1.80
2022-08-12T21:51:49.537Z,1.60
2022-08-12T21:54:22.588Z,1.80
2022-08-12T21:56:50.088Z,1.60
2022-08-12T21:59:17.930Z,1.77
2022-08-12T22:01:48.925Z,1.70
2022-08-12T22:04:35.408Z,1.52
2022-08-12T22:07:01.962Z,1.63
2022-08-12T22:09:29.568Z,1.75
2022-08-12T22:12:27.909Z,1.67
2022-08-12T22:14:54.463Z,1.50
2022-08-12T22:17:20.930Z,2.00
2022-08-12T22:19:50.447Z,1.63
2022-08-12T22:22:16.881Z,1.40
2022-08-12T22:24:47.466Z,1.90
2022-08-12T22:27:32.289Z,1.48
2022-08-12T22:30:19.515Z,1.33
2022-08-12T22:32:51.333Z,1.60
2022-08-12T22:35:47.244Z,1.60
2022-08-12T22:38:23.589Z,1.23
2022-08-12T22:40:52.550Z,1.17
2022-08-12T22:44:00.060Z,1.33
2022-08-12T22:46:33.238Z,1.30
2022-08-12T22:48:59.893Z,1.25
2022-08-12T22:51:26.700Z,1.25
2022-08-12T22:53:55.294Z,1.20
2022-08-12T22:56:30.819Z,1.10
2022-08-12T22:59:02.696Z,1.10
2022-08-12T23:01:52.503Z,0.93
2022-08-12T23:04:27.762Z,1.10
2022-08-12T23:06:58.175Z,1.00
2022-08-12T23:09:27.348Z,1.00
2022-08-12T23:12:02.546Z,1.20
2022-08-12T23:14:32.601Z,1.40
2022-08-12T23:16:59.078Z,1.10
2022-08-12T23:19:38.081Z,1.20
2022-08-12T23:22:36.707Z,1.17
2022-08-12T23:24:56.545Z,1.70
2022-08-12T23:27:51.659Z,1.33
2022-08-12T23:30:31.850Z,1.10
2022-08-12T23:33:01.632Z,1.20
2022-08-12T23:35:46.065Z,1.10
2022-08-12T23:38:30.720Z,1.40
2022-08-12T23:41:02.673Z,1.25
2022-08-12T23:43:39.574Z,1.20
2022-08-12T23:46:13.160Z,1.20
2022-08-12T23:48:47.980Z,1.30
2022-08-12T23:51:22.579Z,1.20
2022-08-12T23:54:05.299Z,1.17
2022-08-12T23:56:35.108Z,1.20
2022-08-12T23:59:03.849Z,1.40
